createdAt,value
2022-10-02T00:02:26.706Z,15.97
2022-10-02T00:05:02.097Z,14.80
2022-10-02T00:07:38.098Z,11.60
2022-10-02T00:10:12.887Z,15.17
2022-10-02T00:12:39.379Z,17.60
2022-10-02T00:15:20.249Z,29.17
2022-10-02T00:17:49.638Z,20.07
2022-10-02T00:20:22.466Z,17.27
2022-10-02T00:23:00.946Z,14.57
2022-10-02T00:25:51.136Z,20.60
2022-10-02T00:28:23.666Z,20.23
2022-10-02T00:31:17.838Z,26.50
2022-10-02T00:34:15.272Z,20.00
2022-10-02T00:36:50.534Z,22.30
2022-10-02T00:39:33.831Z,18.73
2022-10-02T00:42:16.448Z,17.13
2022-10-02T00:44:54.886Z,20.93
2022-10-02T00:47:43.086Z,19.17
2022-10-02T00:50:27.719Z,17.93
2022-10-02T00:53:12.774Z,16.83
2022-10-02T00:55:52.521Z,17.33
2022-10-02T00:58:42.066Z,21.53
2022-10-02T01:01:13.741Z,26.53
2022-10-02T01:03:47.990Z,21.07
2022-10-02T01:06:14.334Z,20.77
2022-10-02T01:08:41.044Z,21.87
2022-10-02T01:11:07.535Z,22.37
2022-10-02T01:13:34.231Z,25.07
2022-10-02T01:16:01.138Z,20.13
2022-10-02T01:18:29.980Z,18.67
2022-10-02T01:21:03.962Z,16.80
2022-10-02T01:23:48.547Z,20.03
2022-10-02T01:26:14.942Z,27.03
2022-10-02T01:28:41.310Z,21.67
2022-10-02T01:31:11.567Z,17.13
2022-10-02T01:33:41.302Z,20.93
2022-10-02T01:36:10.213Z,22.53
2022-10-02T01:38:37.849Z,27.60
2022-10-02T01:41:04.181Z,20.80
2022-10-02T01:43:34.638Z,23.63
2022-10-02T01:46:12.184Z,26.17
2022-10-02T01:48:55.220Z,19.20
2022-10-02T01:51:47.057Z,20.87
2022-10-02T01:54:31.735Z,17.90
2022-10-02T01:57:25.491Z,18.10
2022-10-02T01:59:57.766Z,21.97
2022-10-02T02:02:37.048Z,18.83
2022-10-02T02:05:23.785Z,22.80
2022-10-02T02:07:58.850Z,19.80
2022-10-02T02:10:50.049Z,22.67
2022-10-02T02:13:19.438Z,25.17
2022-10-02T02:16:06.319Z,21.63
2022-10-02T02:18:43.265Z,16.67
2022-10-02T02:21:15.771Z,24.60
2022-10-02T02:23:43.496Z,22.77
2022-10-02T02:26:12.476Z,28.47
2022-10-02T02:28:47.384Z,19.40
2022-10-02T02:31:19.826Z,17.10
2022-10-02T02:33:51.712Z,22.70
2022-10-02T02:36:22.655Z,25.13
2022-10-02T02:38:53.286Z,23.83
2022-10-02T02:41:26.504Z,25.33
2022-10-02T02:44:00.096Z,21.97
2022-10-02T02:46:59.405Z,21.87
2022-10-02T02:49:30.007Z,26.10
2022-10-02T02:51:59.622Z,23.37
2022-10-02T02:54:55.035Z,33.33
2022-10-02T02:57:28.386Z,15.07
2022-10-02T02:59:59.001Z,25.63
2022-10-02T03:02:25.404Z,26.17
2022-10-02T03:04:51.764Z,23.60
2022-10-02T03:07:18.368Z,23.93
2022-10-02T03:10:01.498Z,30.43
2022-10-02T03:13:02.227Z,20.20
2022-10-02T03:15:37.369Z,27.70
2022-10-02T03:18:27.639Z,21.83
2022-10-02T03:21:13.555Z,25.10
2022-10-02T03:24:15.593Z,26.50
2022-10-02T03:27:03.910Z,29.20
2022-10-02T03:29:38.510Z,29.27
2022-10-02T03:32:07.657Z,23.83
2022-10-02T03:34:34.798Z,23.87
2022-10-02T03:37:02.665Z,29.87
2022-10-02T03:39:28.978Z,28.90
2022-10-02T03:41:55.431Z,22.10
2022-10-02T03:44:21.869Z,30.50
2022-10-02T03:46:48.314Z,29.80
2022-10-02T03:49:14.625Z,24.57
2022-10-02T03:51:40.954Z,29.03
2022-10-02T03:54:17.878Z,29.30
2022-10-02T03:57:02.582Z,30.13
2022-10-02T03:59:37.809Z,27.10
2022-10-02T04:02:09.268Z,31.07
2022-10-02T04:04:46.223Z,23.27
2022-10-02T04:07:20.461Z,27.13
2022-10-02T04:09:54.606Z,29.63
2022-10-02T04:12:26.903Z,28.20
2022-10-02T04:14:58.967Z,28.70
2022-10-02T04:17:44.192Z,28.40
2022-10-02T04:20:26.395Z,29.97
2022-10-02T04:23:03.918Z,21.10
2022-10-02T04:25:35.502Z,24.10
2022-10-02T04:28:07.827Z,31.23
2022-10-02T04:30:34.322Z,25.50
2022-10-02T04:33:13.558Z,27.90
2022-10-02T04:35:53.856Z,26.60
2022-10-02T04:38:37.041Z,24.07
2022-10-02T04:41:09.779Z,26.00
2022-10-02T04:43:55.070Z,27.10
2022-10-02T04:46:48.930Z,33.87
2022-10-02T04:49:40.054Z,35.77
2022-10-02T04:52:37.935Z,34.33
2022-10-02T04:55:26.018Z,36.70
2022-10-02T04:58:21.222Z,43.97
2022-10-02T05:01:21.685Z,40.37
2022-10-02T05:04:16.210Z,32.50
2022-10-02T05:07:12.340Z,35.40
2022-10-02T05:09:56.769Z,25.20
2022-10-02T05:12:29.286Z,40.13
2022-10-02T05:15:21.123Z,30.77
2022-10-02T05:18:05.082Z,26.57
2022-10-02T05:21:09.094Z,41.23
2022-10-02T05:23:43.388Z,29.70
2022-10-02T05:26:36.143Z,31.77
2022-10-02T05:29:24.142Z,24.47
2022-10-02T05:31:56.521Z,35.43
2022-10-02T05:34:50.649Z,25.87
2022-10-02T05:37:35.134Z,28.93
2022-10-02T05:40:13.460Z,40.13
2022-10-02T05:42:55.417Z,33.67
2022-10-02T05:45:35.171Z,31.30
2022-10-02T05:48:07.753Z,30.60
2022-10-02T05:50:36.262Z,29.23
2022-10-02T05:53:17.402Z,31.97
2022-10-02T05:55:50.487Z,27.53
2022-10-02T05:58:20.879Z,30.70
2022-10-02T06:00:56.986Z,36.10
2022-10-02T06:03:39.334Z,29.87
2022-10-02T06:06:12.667Z,29.57
2022-10-02T06:08:58.380Z,25.90
2022-10-02T06:11:33.543Z,33.00
2022-10-02T06:14:30.665Z,31.53
2022-10-02T06:17:14.935Z,34.03
2022-10-02T06:19:52.187Z,36.07
2022-10-02T06:22:29.421Z,41.40
2022-10-02T06:25:02.969Z,33.80
2022-10-02T06:27:57.497Z,34.00
2022-10-02T06:30:23.893Z,35.97
2022-10-02T06:33:01.223Z,21.23
2022-10-02T06:35:51.430Z,22.20
2022-10-02T06:38:27.157Z,24.63
2022-10-02T06:41:13.626Z,26.93
2022-10-02T06:43:53.987Z,19.13
2022-10-02T06:46:21.140Z,19.50
2022-10-02T06:49:00.215Z,19.00
2022-10-02T06:51:51.451Z,17.13
2022-10-02T06:54:38.972Z,13.27
2022-10-02T06:57:06.190Z,15.67
2022-10-02T06:59:45.217Z,14.33
2022-10-02T07:02:56.028Z,16.17
2022-10-02T07:05:43.552Z,11.80
2022-10-02T07:08:25.367Z,10.47
2022-10-02T07:10:57.763Z,11.27
2022-10-02T07:13:45.533Z,11.37
2022-10-02T07:16:11.958Z,11.87
2022-10-02T07:18:52.625Z,10.40
2022-10-02T07:21:21.666Z,10.67
2022-10-02T07:24:14.920Z,12.10
2022-10-02T07:27:04.353Z,9.87
2022-10-02T07:29:48.239Z,15.40
2022-10-02T07:32:37.994Z,11.60
2022-10-02T07:35:25.400Z,11.07
2022-10-02T07:38:43.321Z,9.93
2022-10-02T07:41:41.182Z,11.87
2022-10-02T07:44:32.581Z,10.00
2022-10-02T07:47:08.538Z,10.47
2022-10-02T07:50:03.398Z,14.30
2022-10-02T07:52:40.493Z,11.73
2022-10-02T07:55:15.771Z,11.70
2022-10-02T07:58:05.042Z,11.93
2022-10-02T08:00:37.186Z,8.60
2022-10-02T08:03:10.086Z,11.50
2022-10-02T08:05:41.597Z,15.90
2022-10-02T08:08:42.109Z,11.40
2022-10-02T08:11:16.122Z,12.40
2022-10-02T08:13:49.729Z,8.57
2022-10-02T08:16:20.032Z,7.03
2022-10-02T08:19:01.878Z,7.37
2022-10-02T08:21:35.435Z,9.33
2022-10-02T08:24:12.815Z,8.47
2022-10-02T08:26:55.481Z,13.40
2022-10-02T08:29:44.431Z,9.17
2022-10-02T08:32:12.144Z,10.10
2022-10-02T08:34:40.616Z,11.60
2022-10-02T08:37:21.949Z,11.90
2022-10-02T08:39:56.561Z,8.27
2022-10-02T08:42:59.614Z,9.60
2022-10-02T08:46:10.548Z,7.83
2022-10-02T08:49:15.157Z,8.50
2022-10-02T08:52:27.625Z,9.37
2022-10-02T08:55:09.615Z,8.40
2022-10-02T08:57:45.173Z,6.43
2022-10-02T09:00:22.751Z,11.13
2022-10-02T09:03:11.739Z,9.33
2022-10-02T09:06:22.763Z,8.70
2022-10-02T09:09:11.154Z,7.33
2022-10-02T09:12:14.705Z,6.33
2022-10-02T09:15:00.796Z,9.70
2022-10-02T09:18:01.574Z,8.20
2022-10-02T09:20:42.188Z,7.77
2022-10-02T09:23:35.688Z,11.07
2022-10-02T09:26:29.513Z,9.50
2022-10-02T09:29:19.367Z,6.57
2022-10-02T09:32:19.489Z,6.20
2022-10-02T09:34:52.068Z,7.00
2022-10-02T09:37:34.954Z,8.27
2022-10-02T09:40:14.825Z,8.60
2022-10-02T09:43:17.978Z,8.20
2022-10-02T09:46:19.952Z,7.23
2022-10-02T09:49:42.360Z,6.60
2022-10-02T09:52:33.206Z,5.83
2022-10-02T09:55:02.630Z,6.60
2022-10-02T09:57:41.304Z,11.63
2022-10-02T10:00:20.007Z,9.60
2022-10-02T10:03:17.201Z,10.03
2022-10-02T10:05:50.621Z,8.40
2022-10-02T10:08:51.413Z,13.83
2022-10-02T10:11:23.853Z,7.50
2022-10-02T10:14:09.273Z,7.70
2022-10-02T10:17:09.071Z,8.70
2022-10-02T10:20:04.733Z,6.63
2022-10-02T10:23:01.709Z,8.40
2022-10-02T10:26:02.395Z,8.13
2022-10-02T10:28:59.588Z,9.03
2022-10-02T10:31:43.236Z,9.40
2022-10-02T10:34:27.974Z,9.67
2022-10-02T10:37:25.350Z,10.93
2022-10-02T10:40:10.114Z,7.27
2022-10-02T10:43:08.457Z,7.97
2022-10-02T10:45:40.905Z,9.07
2022-10-02T10:48:35.253Z,8.70
2022-10-02T10:51:35.228Z,9.27
2022-10-02T10:54:29.507Z,8.77
2022-10-02T10:57:04.791Z,7.43
2022-10-02T10:59:53.257Z,7.57
2022-10-02T11:02:48.713Z,5.70
2022-10-02T11:06:03.611Z,7.93
2022-10-02T11:08:52.907Z,5.83
2022-10-02T11:12:01.174Z,8.20
2022-10-02T11:15:02.218Z,11.10
2022-10-02T11:18:04.224Z,7.70
2022-10-02T11:21:07.817Z,7.80
2022-10-02T11:23:34.143Z,7.30
2022-10-02T11:26:39.059Z,9.43
2022-10-02T11:29:35.163Z,10.70
2022-10-02T11:32:26.468Z,6.63
2022-10-02T11:35:23.348Z,8.83
2022-10-02T11:38:09.232Z,6.53
2022-10-02T11:40:45.215Z,9.50
2022-10-02T11:43:28.882Z,6.73
2022-10-02T11:46:17.028Z,9.00
2022-10-02T11:49:26.590Z,11.67
2022-10-02T11:52:14.476Z,8.50
2022-10-02T11:54:59.805Z,8.60
2022-10-02T11:57:52.699Z,7.10
2022-10-02T12:00:38.290Z,10.53
2022-10-02T12:03:27.988Z,9.60
2022-10-02T12:06:10.826Z,9.17
2022-10-02T12:09:28.877Z,6.50
2022-10-02T12:12:10.704Z,11.97
2022-10-02T12:15:10.181Z,8.60
2022-10-02T12:18:03.939Z,8.47
2022-10-02T12:20:55.246Z,11.10
2022-10-02T12:23:50.970Z,8.70
2022-10-02T12:26:55.861Z,4.33
2022-10-02T12:29:27.822Z,14.13
2022-10-02T12:32:08.016Z,5.70
2022-10-02T12:35:27.558Z,7.10
2022-10-02T12:38:25.730Z,9.70
2022-10-02T12:41:09.974Z,11.80
2022-10-02T12:44:16.595Z,7.93
2022-10-02T12:47:07.741Z,7.97
2022-10-02T12:49:34.225Z,10.87
2022-10-02T12:52:34.378Z,11.63
2022-10-02T12:55:44.238Z,11.10
2022-10-02T12:58:17.200Z,7.90
2022-10-02T13:01:14.041Z,6.90
2022-10-02T13:04:30.997Z,9.60
2022-10-02T13:07:26.162Z,10.13
2022-10-02T13:09:58.238Z,8.30
2022-10-02T13:12:44.214Z,8.13
2022-10-02T13:15:47.720Z,6.50
2022-10-02T13:18:27.605Z,5.37
2022-10-02T13:21:20.458Z,10.47
2022-10-02T13:24:03.701Z,6.40
2022-10-02T13:26:35.155Z,12.90
2022-10-02T13:29:17.323Z,8.50
2022-10-02T13:32:36.584Z,7.27
2022-10-02T13:35:27.682Z,5.93
2022-10-02T13:38:15.973Z,8.73
2022-10-02T13:41:07.366Z,7.00
2022-10-02T13:44:25.047Z,6.67
2022-10-02T13:47:05.150Z,12.57
2022-10-02T13:49:59.456Z,11.70
2022-10-02T13:52:42.089Z,10.13
2022-10-02T13:55:29.213Z,10.67
2022-10-02T13:58:02.981Z,7.87
2022-10-02T14:00:38.583Z,8.40
2022-10-02T14:03:09.426Z,9.63
2022-10-02T14:05:46.387Z,10.20
2022-10-02T14:08:42.156Z,11.27
2022-10-02T14:11:19.358Z,8.30
2022-10-02T14:13:55.035Z,7.27
2022-10-02T14:17:07.172Z,10.40
2022-10-02T14:20:03.418Z,10.40
2022-10-02T14:22:51.950Z,7.80
2022-10-02T14:25:25.755Z,8.07
2022-10-02T14:28:05.928Z,6.13
2022-10-02T14:31:07.245Z,8.60
2022-10-02T14:33:57.620Z,5.67
2022-10-02T14:36:40.341Z,6.73
2022-10-02T14:39:22.026Z,7.97
2022-10-02T14:42:00.107Z,7.93
2022-10-02T14:44:52.778Z,9.00
2022-10-02T14:47:42.225Z,8.40
2022-10-02T14:50:39.391Z,11.93
2022-10-02T14:53:24.785Z,8.50
2022-10-02T14:56:33.073Z,11.27
2022-10-02T14:59:02.078Z,9.13
2022-10-02T15:01:28.973Z,12.33
2022-10-02T15:04:04.781Z,10.63
2022-10-02T15:06:56.691Z,8.23
2022-10-02T15:09:32.007Z,10.80
2022-10-02T15:12:22.566Z,9.40
2022-10-02T15:15:13.092Z,10.50
2022-10-02T15:17:56.302Z,9.23
2022-10-02T15:21:00.993Z,7.00
2022-10-02T15:23:33.366Z,9.17
2022-10-02T15:26:36.215Z,13.30
2022-10-02T15:29:23.983Z,8.73
2022-10-02T15:32:27.096Z,13.30
2022-10-02T15:35:14.895Z,13.03
2022-10-02T15:37:44.233Z,9.30
2022-10-02T15:40:34.501Z,14.53
2022-10-02T15:43:44.026Z,13.07
2022-10-02T15:46:43.494Z,9.63
2022-10-02T15:49:39.869Z,11.50
2022-10-02T15:52:12.990Z,14.43
2022-10-02T15:54:51.785Z,10.33
2022-10-02T15:57:32.102Z,8.20
2022-10-02T16:00:14.051Z,11.03
2022-10-02T16:03:01.417Z,13.37
2022-10-02T16:05:38.749Z,11.23
2022-10-02T16:08:26.789Z,9.50
2022-10-02T16:11:05.375Z,9.57
2022-10-02T16:13:46.299Z,10.57
2022-10-02T16:16:47.774Z,11.27
2022-10-02T16:19:50.919Z,10.23
2022-10-02T16:22:32.867Z,9.10
2022-10-02T16:25:08.422Z,10.67
2022-10-02T16:28:13.726Z,11.97
2022-10-02T16:30:48.958Z,6.07
2022-10-02T16:33:32.501Z,11.37
2022-10-02T16:36:29.855Z,9.70
2022-10-02T16:39:03.429Z,13.23
2022-10-02T16:41:38.392Z,10.60
2022-10-02T16:44:43.258Z,11.00
2022-10-02T16:47:37.650Z,9.60
2022-10-02T16:50:16.544Z,16.80
2022-10-02T16:53:05.295Z,11.13
2022-10-02T16:55:38.186Z,12.90
2022-10-02T16:58:24.342Z,14.00
2022-10-02T17:01:15.603Z,10.47
2022-10-02T17:04:05.948Z,8.27
2022-10-02T17:06:41.694Z,12.23
2022-10-02T17:09:17.260Z,12.93
2022-10-02T17:11:51.293Z,15.23
2022-10-02T17:14:28.866Z,10.47
2022-10-02T17:17:00.201Z,8.10
2022-10-02T17:19:47.543Z,11.77
2022-10-02T17:22:42.887Z,8.87
2022-10-02T17:25:37.082Z,13.07
2022-10-02T17:28:16.829Z,14.53
2022-10-02T17:30:54.497Z,10.33
2022-10-02T17:33:21.658Z,11.10
2022-10-02T17:35:54.100Z,16.97
2022-10-02T17:38:34.752Z,10.97
2022-10-02T17:41:33.034Z,13.00
2022-10-02T17:44:04.874Z,12.13
2022-10-02T17:46:53.042Z,9.80
2022-10-02T17:49:41.194Z,14.00
2022-10-02T17:52:39.780Z,13.10
2022-10-02T17:55:57.710Z,17.90
2022-10-02T17:58:31.277Z,12.93
2022-10-02T18:01:12.634Z,15.97
2022-10-02T18:03:51.862Z,14.70
2022-10-02T18:06:33.817Z,15.93
2022-10-02T18:09:28.508Z,14.27
2022-10-02T18:12:22.117Z,14.03
2022-10-02T18:14:54.850Z,10.23
2022-10-02T18:17:41.366Z,28.87
2022-10-02T18:20:35.292Z,15.97
2022-10-02T18:23:17.090Z,13.60
2022-10-02T18:26:01.713Z,16.57
2022-10-02T18:28:30.797Z,14.50
2022-10-02T18:31:17.257Z,16.87
2022-10-02T18:34:08.427Z,17.67
2022-10-02T18:36:50.517Z,13.37
2022-10-02T18:39:42.331Z,11.70
2022-10-02T18:42:49.001Z,13.10
2022-10-02T18:45:31.423Z,17.57
2022-10-02T18:48:19.630Z,17.97
2022-10-02T18:51:04.847Z,11.30
2022-10-02T18:53:53.689Z,14.83
2022-10-02T18:56:57.101Z,16.20
2022-10-02T18:59:30.082Z,15.87
2022-10-02T19:02:19.203Z,15.57
2022-10-02T19:05:19.792Z,12.90
2022-10-02T19:07:53.908Z,13.87
2022-10-02T19:10:28.826Z,12.10
2022-10-02T19:13:17.554Z,17.30
2022-10-02T19:15:47.195Z,14.10
2022-10-02T19:18:16.680Z,11.23
2022-10-02T19:20:58.142Z,14.77
2022-10-02T19:23:29.506Z,12.00
2022-10-02T19:26:00.778Z,16.90
2022-10-02T19:28:30.496Z,14.20
2022-10-02T19:31:04.198Z,13.63
2022-10-02T19:33:42.147Z,16.30
2022-10-02T19:36:15.810Z,10.60
2022-10-02T19:38:44.849Z,11.23
2022-10-02T19:41:14.659Z,14.73
2022-10-02T19:44:03.204Z,15.20
2022-10-02T19:46:43.073Z,13.50
2022-10-02T19:49:20.946Z,10.97
2022-10-02T19:51:47.769Z,18.30
2022-10-02T19:54:24.521Z,12.83
2022-10-02T19:56:57.465Z,15.97
2022-10-02T19:59:30.130Z,15.23
2022-10-02T20:02:00.774Z,22.93
2022-10-02T20:04:35.392Z,18.40
2022-10-02T20:07:02.902Z,18.80
2022-10-02T20:09:39.494Z,19.50
2022-10-02T20:12:11.010Z,15.40
2022-10-02T20:14:49.898Z,11.97
2022-10-02T20:17:17.844Z,14.77
2022-10-02T20:19:54.217Z,17.30
2022-10-02T20:22:29.630Z,11.80
2022-10-02T20:25:20.920Z,18.20
2022-10-02T20:28:04.684Z,19.30
2022-10-02T20:30:41.613Z,14.53
2022-10-02T20:33:24.528Z,13.20
2022-10-02T20:36:29.201Z,15.20
2022-10-02T20:39:12.011Z,14.97
2022-10-02T20:41:55.703Z,9.87
2022-10-02T20:44:22.325Z,14.50
2022-10-02T20:47:08.524Z,15.20
2022-10-02T20:49:40.152Z,18.63
2022-10-02T20:52:18.890Z,18.03
2022-10-02T20:54:59.496Z,16.40
2022-10-02T20:58:02.142Z,13.13
2022-10-02T21:00:50.121Z,14.80
2022-10-02T21:03:37.002Z,17.03
2022-10-02T21:06:33.684Z,15.27
2022-10-02T21:09:15.853Z,13.73
2022-10-02T21:12:14.902Z,17.33
2022-10-02T21:15:18.157Z,13.07
2022-10-02T21:18:14.798Z,12.73
2022-10-02T21:21:08.527Z,15.97
2022-10-02T21:23:40.825Z,18.43
2022-10-02T21:26:45.078Z,17.23
2022-10-02T21:29:39.342Z,19.27
2022-10-02T21:32:39.113Z,19.23
2022-10-02T21:35:43.957Z,12.70
2022-10-02T21:38:30.090Z,16.97
2022-10-02T21:41:27.730Z,23.20
2022-10-02T21:44:17.846Z,15.43
2022-10-02T21:47:19.024Z,11.43
2022-10-02T21:50:07.325Z,13.50
2022-10-02T21:53:05.215Z,18.83
2022-10-02T21:56:09.854Z,16.33
2022-10-02T21:59:12.337Z,16.63
2022-10-02T22:01:57.465Z,13.00
2022-10-02T22:04:42.945Z,17.27
2022-10-02T22:07:42.940Z,17.20
2022-10-02T22:10:12.576Z,13.33
2022-10-02T22:13:02.369Z,13.03
2022-10-02T22:15:46.529Z,16.63
2022-10-02T22:18:28.992Z,14.47
2022-10-02T22:21:26.566Z,17.60
2022-10-02T22:24:11.702Z,19.70
2022-10-02T22:26:56.350Z,15.20
2022-10-02T22:29:40.527Z,12.30
2022-10-02T22:32:40.774Z,13.27
2022-10-02T22:35:25.237Z,10.23
2022-10-02T22:38:26.234Z,13.27
2022-10-02T22:40:58.839Z,12.17
2022-10-02T22:43:40.022Z,12.57
2022-10-02T22:46:30.735Z,15.20
2022-10-02T22:49:15.096Z,14.70
2022-10-02T22:51:50.789Z,12.70
2022-10-02T22:54:24.355Z,12.20
2022-10-02T22:56:57.962Z,16.80
2022-10-02T22:59:36.580Z,13.77
2022-10-02T23:02:08.095Z,15.80
2022-10-02T23:05:02.045Z,10.40
2022-10-02T23:07:36.810Z,12.73
2022-10-02T23:10:08.904Z,11.67
2022-10-02T23:12:49.514Z,14.37
2022-10-02T23:15:41.773Z,18.53
2022-10-02T23:18:21.547Z,12.50
2022-10-02T23:21:19.064Z,13.43
2022-10-02T23:23:53.673Z,18.93
2022-10-02T23:26:31.739Z,19.03
2022-10-02T23:29:18.044Z,16.83
2022-10-02T23:31:53.561Z,16.43
2022-10-02T23:34:38.234Z,12.37
2022-10-02T23:37:27.553Z,11.87
2022-10-02T23:40:13.521Z,10.47
2022-10-02T23:42:49.362Z,14.50
2022-10-02T23:45:25.945Z,21.27
2022-10-02T23:48:10.369Z,10.50
2022-10-02T23:50:52.903Z,12.97
2022-10-02T23:54:07.078Z,12.33
2022-10-02T23:57:19.909Z,11.27
